sensor_id;sensor_type;location;lat;lon;timestamp;temperature;humidity
21207;DHT22;10761;48.532;8.026;2023-09-30T00:02:07;16.20;99.90
21207;DHT22;10761;48.532;8.026;2023-09-30T00:04:33;16.20;99.90
21207;DHT22;10761;48.532;8.026;2023-09-30T00:06:59;16.20;99.90
21207;DHT22;10761;48.532;8.026;2023-09-30T00:09:25;16.10;99.90
21207;DHT22;10761;48.532;8.026;2023-09-30T00:11:50;16.10;99.90
21207;DHT22;10761;48.532;8.026;2023-09-30T00:14:16;15.90;99.90
21207;DHT22;10761;48.532;8.026;2023-09-30T00:16:42;15.80;99.90
21207;DHT22;10761;48.532;8.026;2023-09-30T00:19:08;15.80;99.90
21207;DHT22;10761;48.532;8.026;2023-09-30T00:21:35;15.90;99.90
21207;DHT22;10761;48.532;8.026;2023-09-30T00:24:00;15.90;99.90
21207;DHT22;10761;48.532;8.026;2023-09-30T00:26:26;15.80;99.90
21207;DHT22;10761;48.532;8.026;2023-09-30T00:28:52;15.90;99.90
21207;DHT22;10761;48.532;8.026;2023-09-30T00:31:17;15.90;99.90
21207;DHT22;10761;48.532;8.026;2023-09-30T00:33:43;15.90;99.90
21207;DHT22;10761;48.532;8.026;2023-09-30T00:36:09;15.80;99.90
21207;DHT22;10761;48.532;8.026;2023-09-30T00:38:36;15.60;99.90
21207;DHT22;10761;48.532;8.026;2023-09-30T00:41:02;15.60;99.90
21207;DHT22;10761;48.532;8.026;2023-09-30T00:43:28;15.60;99.90
21207;DHT22;10761;48.532;8.026;2023-09-30T00:48:39;15.60;99.90
21207;DHT22;10761;48.532;8.026;2023-09-30T00:51:05;15.60;99.90
21207;DHT22;10761;48.532;8.026;2023-09-30T00:53:31;15.50;99.90
21207;DHT22;10761;48.532;8.026;2023-09-30T00:55:58;15.40;99.90
21207;DHT22;10761;48.532;8.026;2023-09-30T00:58:25;15.40;99.90
21207;DHT22;10761;48.532;8.026;2023-09-30T01:00:56;15.50;99.90
21207;DHT22;10761;48.532;8.026;2023-09-30T01:03:23;15.40;99.90
21207;DHT22;10761;48.532;8.026;2023-09-30T01:05:49;15.40;99.90
21207;DHT22;10761;48.532;8.026;2023-09-30T01:08:16;15.30;99.90
21207;DHT22;10761;48.532;8.026;2023-09-30T01:10:42;15.40;99.90
21207;DHT22;10761;48.532;8.026;2023-09-30T01:13:07;15.40;99.90
21207;DHT22;10761;48.532;8.026;2023-09-30T01:15:33;15.50;99.90
21207;DHT22;10761;48.532;8.026;2023-09-30T01:17:58;15.50;99.90
21207;DHT22;10761;48.532;8.026;2023-09-30T01:20:24;15.60;99.90
21207;DHT22;10761;48.532;8.026;2023-09-30T01:22:50;15.60;99.90
21207;DHT22;10761;48.532;8.026;2023-09-30T01:25:15;15.50;99.90
21207;DHT22;10761;48.532;8.026;2023-09-30T01:27:41;15.50;99.90
21207;DHT22;10761;48.532;8.026;2023-09-30T01:30:07;15.40;99.90
21207;DHT22;10761;48.532;8.026;2023-09-30T01:32:37;15.40;99.90
21207;DHT22;10761;48.532;8.026;2023-09-30T01:35:02;15.30;99.90
21207;DHT22;10761;48.532;8.026;2023-09-30T01:37:28;15.30;99.90
21207;DHT22;10761;48.532;8.026;2023-09-30T01:39:54;15.20;99.90
21207;DHT22;10761;48.532;8.026;2023-09-30T01:42:20;15.20;99.90
21207;DHT22;10761;48.532;8.026;2023-09-30T01:44:46;15.20;99.90
21207;DHT22;10761;48.532;8.026;2023-09-30T01:47:12;15.10;99.90
21207;DHT22;10761;48.532;8.026;2023-09-30T01:49:38;15.10;99.90
21207;DHT22;10761;48.532;8.026;2023-09-30T01:52:04;15.10;99.90
21207;DHT22;10761;48.532;8.026;2023-09-30T01:54:30;15.00;99.90
21207;DHT22;10761;48.532;8.026;2023-09-30T01:56:55;15.00;99.90
21207;DHT22;10761;48.532;8.026;2023-09-30T01:59:21;14.90;99.90
21207;DHT22;10761;48.532;8.026;2023-09-30T02:01:47;14.90;99.90
21207;DHT22;10761;48.532;8.026;2023-09-30T02:04:14;14.80;99.90
21207;DHT22;10761;48.532;8.026;2023-09-30T02:06:43;14.80;99.90
21207;DHT22;10761;48.532;8.026;2023-09-30T02:09:09;14.80;99.90
21207;DHT22;10761;48.532;8.026;2023-09-30T02:11:35;14.80;99.90
21207;DHT22;10761;48.532;8.026;2023-09-30T02:14:02;14.80;99.90
21207;DHT22;10761;48.532;8.026;2023-09-30T02:16:28;14.90;99.90
21207;DHT22;10761;48.532;8.026;2023-09-30T02:18:53;15.00;99.90
21207;DHT22;10761;48.532;8.026;2023-09-30T02:21:19;15.10;99.90
21207;DHT22;10761;48.532;8.026;2023-09-30T02:23:47;15.20;99.90
21207;DHT22;10761;48.532;8.026;2023-09-30T02:26:16;15.30;99.90
21207;DHT22;10761;48.532;8.026;2023-09-30T02:28:43;15.30;99.90
21207;DHT22;10761;48.532;8.026;2023-09-30T02:31:08;15.30;99.90
21207;DHT22;10761;48.532;8.026;2023-09-30T02:33:34;15.30;99.90
21207;DHT22;10761;48.532;8.026;2023-09-30T02:36:07;15.30;99.90
21207;DHT22;10761;48.532;8.026;2023-09-30T02:38:32;15.30;99.90
21207;DHT22;10761;48.532;8.026;2023-09-30T02:40:58;15.30;99.90
21207;DHT22;10761;48.532;8.026;2023-09-30T02:43:24;15.30;99.90
21207;DHT22;10761;48.532;8.026;2023-09-30T02:45:49;15.30;99.90
21207;DHT22;10761;48.532;8.026;2023-09-30T02:48:15;15.40;99.90
21207;DHT22;10761;48.532;8.026;2023-09-30T02:50:42;15.30;99.90
21207;DHT22;10761;48.532;8.026;2023-09-30T02:53:10;15.40;99.90
21207;DHT22;10761;48.532;8.026;2023-09-30T02:55:36;15.40;99.90
21207;DHT22;10761;48.532;8.026;2023-09-30T02:58:02;15.50;99.90
21207;DHT22;10761;48.532;8.026;2023-09-30T03:00:28;15.60;99.90
21207;DHT22;10761;48.532;8.026;2023-09-30T03:02:59;15.60;99.90
21207;DHT22;10761;48.532;8.026;2023-09-30T03:05:25;15.60;99.90
21207;DHT22;10761;48.532;8.026;2023-09-30T03:07:50;15.60;99.90
21207;DHT22;10761;48.532;8.026;2023-09-30T03:10:16;15.60;99.90
21207;DHT22;10761;48.532;8.026;2023-09-30T03:12:55;15.60;99.90
21207;DHT22;10761;48.532;8.026;2023-09-30T03:15:21;15.50;99.90
21207;DHT22;10761;48.532;8.026;2023-09-30T03:17:47;15.50;99.90
21207;DHT22;10761;48.532;8.026;2023-09-30T03:20:14;15.50;99.90
21207;DHT22;10761;48.532;8.026;2023-09-30T03:22:44;15.50;99.90
21207;DHT22;10761;48.532;8.026;2023-09-30T03:25:13;15.50;99.90
21207;DHT22;10761;48.532;8.026;2023-09-30T03:27:40;15.50;99.90
21207;DHT22;10761;48.532;8.026;2023-09-30T03:30:08;15.50;99.90
21207;DHT22;10761;48.532;8.026;2023-09-30T03:32:34;15.50;99.90
21207;DHT22;10761;48.532;8.026;2023-09-30T03:35:02;15.50;99.90
21207;DHT22;10761;48.532;8.026;2023-09-30T03:37:27;15.50;99.90
21207;DHT22;10761;48.532;8.026;2023-09-30T03:39:56;15.50;99.90
21207;DHT22;10761;48.532;8.026;2023-09-30T03:42:22;15.50;99.90
21207;DHT22;10761;48.532;8.026;2023-09-30T03:44:48;15.50;99.90
21207;DHT22;10761;48.532;8.026;2023-09-30T03:47:14;15.50;99.90
21207;DHT22;10761;48.532;8.026;2023-09-30T03:49:41;15.40;99.90
21207;DHT22;10761;48.532;8.026;2023-09-30T03:52:11;15.40;99.90
21207;DHT22;10761;48.532;8.026;2023-09-30T03:54:37;15.40;99.90
21207;DHT22;10761;48.532;8.026;2023-09-30T03:57:03;15.30;99.90
21207;DHT22;10761;48.532;8.026;2023-09-30T03:59:29;15.30;99.90
21207;DHT22;10761;48.532;8.026;2023-09-30T04:01:55;15.30;99.90
21207;DHT22;10761;48.532;8.026;2023-09-30T04:04:23;15.30;99.90
21207;DHT22;10761;48.532;8.026;2023-09-30T04:06:48;15.20;99.90
21207;DHT22;10761;48.532;8.026;2023-09-30T04:09:17;15.20;99.90
21207;DHT22;10761;48.532;8.026;2023-09-30T04:11:42;15.30;99.90
21207;DHT22;10761;48.532;8.026;2023-09-30T04:14:08;15.20;99.90
21207;DHT22;10761;48.532;8.026;2023-09-30T04:16:34;15.20;99.90
21207;DHT22;10761;48.532;8.026;2023-09-30T04:19:01;15.20;99.90
21207;DHT22;10761;48.532;8.026;2023-09-30T04:21:26;15.20;99.90
21207;DHT22;10761;48.532;8.026;2023-09-30T04:23:54;15.20;99.90
21207;DHT22;10761;48.532;8.026;2023-09-30T04:26:19;15.20;99.90
21207;DHT22;10761;48.532;8.026;2023-09-30T04:28:45;15.20;99.90
21207;DHT22;10761;48.532;8.026;2023-09-30T04:31:11;15.20;99.90
21207;DHT22;10761;48.532;8.026;2023-09-30T04:33:39;15.20;99.90
21207;DHT22;10761;48.532;8.026;2023-09-30T04:36:06;15.10;99.90
21207;DHT22;10761;48.532;8.026;2023-09-30T04:38:34;15.20;99.90
21207;DHT22;10761;48.532;8.026;2023-09-30T04:41:00;15.20;99.90
21207;DHT22;10761;48.532;8.026;2023-09-30T04:43:26;15.20;99.90
21207;DHT22;10761;48.532;8.026;2023-09-30T04:45:54;15.20;99.90
21207;DHT22;10761;48.532;8.026;2023-09-30T04:48:22;15.20;99.90
21207;DHT22;10761;48.532;8.026;2023-09-30T04:50:48;15.20;99.90
21207;DHT22;10761;48.532;8.026;2023-09-30T04:53:14;15.20;99.90
21207;DHT22;10761;48.532;8.026;2023-09-30T04:55:41;15.20;99.90
21207;DHT22;10761;48.532;8.026;2023-09-30T04:58:06;15.20;99.90
21207;DHT22;10761;48.532;8.026;2023-09-30T05:00:32;15.20;99.90
21207;DHT22;10761;48.532;8.026;2023-09-30T05:02:58;15.20;99.90
21207;DHT22;10761;48.532;8.026;2023-09-30T05:05:24;15.20;99.90
21207;DHT22;10761;48.532;8.026;2023-09-30T05:07:50;15.20;99.90
21207;DHT22;10761;48.532;8.026;2023-09-30T05:10:16;15.20;99.90
21207;DHT22;10761;48.532;8.026;2023-09-30T05:12:45;15.30;99.90
21207;DHT22;10761;48.532;8.026;2023-09-30T05:15:15;15.30;99.90
21207;DHT22;10761;48.532;8.026;2023-09-30T05:17:45;15.30;99.90
21207;DHT22;10761;48.532;8.026;2023-09-30T05:20:11;15.30;99.90
21207;DHT22;10761;48.532;8.026;2023-09-30T05:22:38;15.20;99.90
21207;DHT22;10761;48.532;8.026;2023-09-30T05:25:06;15.20;99.90
21207;DHT22;10761;48.532;8.026;2023-09-30T05:27:32;15.20;99.90
21207;DHT22;10761;48.532;8.026;2023-09-30T05:29:58;15.10;99.90
21207;DHT22;10761;48.532;8.026;2023-09-30T05:32:24;15.10;99.90
21207;DHT22;10761;48.532;8.026;2023-09-30T05:34:51;15.10;99.90
21207;DHT22;10761;48.532;8.026;2023-09-30T05:37:18;15.10;99.90
21207;DHT22;10761;48.532;8.026;2023-09-30T05:39:47;15.10;99.90
21207;DHT22;10761;48.532;8.026;2023-09-30T05:42:15;15.00;99.90
21207;DHT22;10761;48.532;8.026;2023-09-30T05:44:40;15.00;99.90
21207;DHT22;10761;48.532;8.026;2023-09-30T05:47:07;15.00;99.90
21207;DHT22;10761;48.532;8.026;2023-09-30T05:49:33;15.00;99.90
21207;DHT22;10761;48.532;8.026;2023-09-30T05:51:59;15.00;99.90
21207;DHT22;10761;48.532;8.026;2023-09-30T05:54:25;14.90;99.90
21207;DHT22;10761;48.532;8.026;2023-09-30T05:56:50;14.90;99.90
21207;DHT22;10761;48.532;8.026;2023-09-30T05:59:16;14.90;99.90
21207;DHT22;10761;48.532;8.026;2023-09-30T06:01:41;15.00;99.90
21207;DHT22;10761;48.532;8.026;2023-09-30T06:04:08;15.00;99.90
21207;DHT22;10761;48.532;8.026;2023-09-30T06:06:33;15.00;99.90
21207;DHT22;10761;48.532;8.026;2023-09-30T06:08:59;15.00;99.90
21207;DHT22;10761;48.532;8.026;2023-09-30T06:11:25;14.90;99.90
21207;DHT22;10761;48.532;8.026;2023-09-30T06:13:57;15.00;99.90
21207;DHT22;10761;48.532;8.026;2023-09-30T06:16:24;15.10;99.90
21207;DHT22;10761;48.532;8.026;2023-09-30T06:18:52;15.10;99.90
21207;DHT22;10761;48.532;8.026;2023-09-30T06:21:19;15.10;99.90
21207;DHT22;10761;48.532;8.026;2023-09-30T06:23:47;15.20;99.90
21207;DHT22;10761;48.532;8.026;2023-09-30T06:26:12;15.30;99.90
21207;DHT22;10761;48.532;8.026;2023-09-30T06:28:38;15.30;99.90
21207;DHT22;10761;48.532;8.026;2023-09-30T06:31:09;15.40;99.90
21207;DHT22;10761;48.532;8.026;2023-09-30T06:33:38;15.50;99.90
21207;DHT22;10761;48.532;8.026;2023-09-30T06:36:13;15.50;99.90
21207;DHT22;10761;48.532;8.026;2023-09-30T06:38:43;15.70;99.90
21207;DHT22;10761;48.532;8.026;2023-09-30T06:41:09;15.70;99.90
21207;DHT22;10761;48.532;8.026;2023-09-30T06:43:35;15.80;99.90
21207;DHT22;10761;48.532;8.026;2023-09-30T06:46:08;16.00;99.90
21207;DHT22;10761;48.532;8.026;2023-09-30T06:48:35;16.10;99.90
21207;DHT22;10761;48.532;8.026;2023-09-30T06:51:00;16.10;99.90
21207;DHT22;10761;48.532;8.026;2023-09-30T06:53:27;16.20;99.90
21207;DHT22;10761;48.532;8.026;2023-09-30T06:55:53;16.30;99.90
21207;DHT22;10761;48.532;8.026;2023-09-30T06:58:18;16.50;99.90
21207;DHT22;10761;48.532;8.026;2023-09-30T07:00:50;16.70;99.90
21207;DHT22;10761;48.532;8.026;2023-09-30T07:03:16;16.90;99.90
21207;DHT22;10761;48.532;8.026;2023-09-30T07:05:42;17.00;99.90
21207;DHT22;10761;48.532;8.026;2023-09-30T07:08:09;17.10;99.90
21207;DHT22;10761;48.532;8.026;2023-09-30T07:10:34;17.20;99.90
21207;DHT22;10761;48.532;8.026;2023-09-30T07:13:02;17.30;99.90
21207;DHT22;10761;48.532;8.026;2023-09-30T07:15:29;17.50;99.90
21207;DHT22;10761;48.532;8.026;2023-09-30T07:17:54;17.70;99.90
21207;DHT22;10761;48.532;8.026;2023-09-30T07:20:20;17.80;99.90
21207;DHT22;10761;48.532;8.026;2023-09-30T07:22:48;18.00;99.90
21207;DHT22;10761;48.532;8.026;2023-09-30T07:25:13;18.20;99.90
21207;DHT22;10761;48.532;8.026;2023-09-30T07:27:45;18.30;76.50
21207;DHT22;10761;48.532;8.026;2023-09-30T07:30:12;18.40;24.00
21207;DHT22;10761;48.532;8.026;2023-09-30T07:32:41;18.50;11.10
21207;DHT22;10761;48.532;8.026;2023-09-30T07:35:07;18.70;1.00
21207;DHT22;10761;48.532;8.026;2023-09-30T07:37:33;18.80;1.00
21207;DHT22;10761;48.532;8.026;2023-09-30T07:39:59;19.00;1.00
21207;DHT22;10761;48.532;8.026;2023-09-30T07:42:25;19.00;1.00
21207;DHT22;10761;48.532;8.026;2023-09-30T07:44:50;19.20;1.00
21207;DHT22;10761;48.532;8.026;2023-09-30T07:47:17;19.30;1.00
21207;DHT22;10761;48.532;8.026;2023-09-30T07:49:42;19.50;1.00
21207;DHT22;10761;48.532;8.026;2023-09-30T07:52:08;19.70;1.00
21207;DHT22;10761;48.532;8.026;2023-09-30T07:54:34;19.80;99.90
21207;DHT22;10761;48.532;8.026;2023-09-30T07:57:00;19.70;99.90
21207;DHT22;10761;48.532;8.026;2023-09-30T07:59:26;19.80;1.00
21207;DHT22;10761;48.532;8.026;2023-09-30T08:01:51;19.80;99.90
21207;DHT22;10761;48.532;8.026;2023-09-30T08:04:18;19.90;99.90
21207;DHT22;10761;48.532;8.026;2023-09-30T08:06:44;20.10;1.00
21207;DHT22;10761;48.532;8.026;2023-09-30T08:09:12;20.10;1.00
21207;DHT22;10761;48.532;8.026;2023-09-30T08:11:38;20.20;1.00
21207;DHT22;10761;48.532;8.026;2023-09-30T08:14:04;20.30;99.90
21207;DHT22;10761;48.532;8.026;2023-09-30T08:16:38;20.50;99.90
21207;DHT22;10761;48.532;8.026;2023-09-30T08:19:04;20.70;1.00
21207;DHT22;10761;48.532;8.026;2023-09-30T08:21:30;20.80;1.00
21207;DHT22;10761;48.532;8.026;2023-09-30T08:23:59;20.80;1.00
21207;DHT22;10761;48.532;8.026;2023-09-30T08:26:24;21.00;99.90
21207;DHT22;10761;48.532;8.026;2023-09-30T08:28:50;21.00;99.90
21207;DHT22;10761;48.532;8.026;2023-09-30T08:31:16;20.90;1.00
21207;DHT22;10761;48.532;8.026;2023-09-30T08:33:42;21.20;1.00
21207;DHT22;10761;48.532;8.026;2023-09-30T08:36:10;21.30;12.10
21207;DHT22;10761;48.532;8.026;2023-09-30T08:38:37;21.40;1.00
21207;DHT22;10761;48.532;8.026;2023-09-30T08:41:03;21.60;1.00
21207;DHT22;10761;48.532;8.026;2023-09-30T08:43:29;22.00;99.90
21207;DHT22;10761;48.532;8.026;2023-09-30T08:45:59;22.00;1.00
21207;DHT22;10761;48.532;8.026;2023-09-30T08:48:26;22.10;1.00
21207;DHT22;10761;48.532;8.026;2023-09-30T08:50:53;22.20;1.00
21207;DHT22;10761;48.532;8.026;2023-09-30T08:53:20;22.30;99.90
21207;DHT22;10761;48.532;8.026;2023-09-30T08:55:46;22.50;1.00
21207;DHT22;10761;48.532;8.026;2023-09-30T08:58:13;22.90;1.00
21207;DHT22;10761;48.532;8.026;2023-09-30T09:00:39;23.10;1.00
21207;DHT22;10761;48.532;8.026;2023-09-30T09:03:07;23.40;1.00
21207;DHT22;10761;48.532;8.026;2023-09-30T09:05:33;23.50;99.90
21207;DHT22;10761;48.532;8.026;2023-09-30T09:07:58;23.70;99.90
21207;DHT22;10761;48.532;8.026;2023-09-30T09:10:24;24.00;9.90
21207;DHT22;10761;48.532;8.026;2023-09-30T09:12:57;24.30;1.00
21207;DHT22;10761;48.532;8.026;2023-09-30T09:15:25;24.60;1.00
21207;DHT22;10761;48.532;8.026;2023-09-30T09:17:52;24.80;99.90
21207;DHT22;10761;48.532;8.026;2023-09-30T09:20:26;24.70;99.90
21207;DHT22;10761;48.532;8.026;2023-09-30T09:22:53;24.70;99.90
21207;DHT22;10761;48.532;8.026;2023-09-30T09:25:21;24.80;99.90
21207;DHT22;10761;48.532;8.026;2023-09-30T09:27:49;24.70;99.90
21207;DHT22;10761;48.532;8.026;2023-09-30T09:30:22;24.40;18.00
21207;DHT22;10761;48.532;8.026;2023-09-30T09:35:21;24.40;1.00
21207;DHT22;10761;48.532;8.026;2023-09-30T09:38:01;24.50;1.00
21207;DHT22;10761;48.532;8.026;2023-09-30T09:40:28;24.70;1.00
21207;DHT22;10761;48.532;8.026;2023-09-30T09:42:55;25.00;1.00
21207;DHT22;10761;48.532;8.026;2023-09-30T09:45:22;25.20;1.00
21207;DHT22;10761;48.532;8.026;2023-09-30T09:47:52;25.30;1.00
21207;DHT22;10761;48.532;8.026;2023-09-30T09:50:18;25.50;1.00
21207;DHT22;10761;48.532;8.026;2023-09-30T09:52:49;25.70;1.00
21207;DHT22;10761;48.532;8.026;2023-09-30T09:55:21;25.80;1.00
21207;DHT22;10761;48.532;8.026;2023-09-30T09:57:49;25.80;1.00
21207;DHT22;10761;48.532;8.026;2023-09-30T10:00:17;25.80;1.00
21207;DHT22;10761;48.532;8.026;2023-09-30T10:02:44;25.80;1.00
21207;DHT22;10761;48.532;8.026;2023-09-30T10:05:12;25.40;1.00
21207;DHT22;10761;48.532;8.026;2023-09-30T10:07:42;25.20;1.00
21207;DHT22;10761;48.532;8.026;2023-09-30T10:10:12;25.40;1.00
21207;DHT22;10761;48.532;8.026;2023-09-30T10:12:39;25.30;1.00
21207;DHT22;10761;48.532;8.026;2023-09-30T10:18:08;25.50;1.00
21207;DHT22;10761;48.532;8.026;2023-09-30T10:20:36;24.70;1.00
21207;DHT22;10761;48.532;8.026;2023-09-30T10:25:47;24.40;1.00
21207;DHT22;10761;48.532;8.026;2023-09-30T10:28:32;24.50;1.00
21207;DHT22;10761;48.532;8.026;2023-09-30T10:31:12;25.00;1.00
21207;DHT22;10761;48.532;8.026;2023-09-30T10:38:55;25.90;1.00
21207;DHT22;10761;48.532;8.026;2023-09-30T10:46:57;26.60;99.90
21207;DHT22;10761;48.532;8.026;2023-09-30T10:51:56;27.20;99.90
21207;DHT22;10761;48.532;8.026;2023-09-30T10:54:26;27.60;99.90
21207;DHT22;10761;48.532;8.026;2023-09-30T10:56:53;28.10;99.90
21207;DHT22;10761;48.532;8.026;2023-09-30T10:59:20;28.20;99.90
21207;DHT22;10761;48.532;8.026;2023-09-30T11:01:46;27.80;99.90
21207;DHT22;10761;48.532;8.026;2023-09-30T11:04:11;27.20;99.90
21207;DHT22;10761;48.532;8.026;2023-09-30T11:06:40;26.90;99.90
21207;DHT22;10761;48.532;8.026;2023-09-30T11:09:06;27.30;99.90
21207;DHT22;10761;48.532;8.026;2023-09-30T11:11:44;27.90;99.90
21207;DHT22;10761;48.532;8.026;2023-09-30T11:14:20;28.50;99.90
21207;DHT22;10761;48.532;8.026;2023-09-30T11:16:48;28.70;99.90
21207;DHT22;10761;48.532;8.026;2023-09-30T11:19:14;29.00;99.90
21207;DHT22;10761;48.532;8.026;2023-09-30T11:21:47;29.00;99.90
21207;DHT22;10761;48.532;8.026;2023-09-30T11:24:14;29.20;99.90
21207;DHT22;10761;48.532;8.026;2023-09-30T11:26:40;29.30;99.90
21207;DHT22;10761;48.532;8.026;2023-09-30T11:29:13;29.00;99.90
21207;DHT22;10761;48.532;8.026;2023-09-30T11:31:41;28.60;99.90
21207;DHT22;10761;48.532;8.026;2023-09-30T11:34:08;28.50;99.90
21207;DHT22;10761;48.532;8.026;2023-09-30T11:36:36;28.10;99.90
21207;DHT22;10761;48.532;8.026;2023-09-30T11:39:02;28.00;99.90
21207;DHT22;10761;48.532;8.026;2023-09-30T11:41:35;28.20;99.90
21207;DHT22;10761;48.532;8.026;2023-09-30T11:44:07;28.70;99.90
21207;DHT22;10761;48.532;8.026;2023-09-30T11:47:01;29.40;99.90
21207;DHT22;10761;48.532;8.026;2023-09-30T11:49:52;29.90;99.90
21207;DHT22;10761;48.532;8.026;2023-09-30T11:52:26;30.80;96.60
21207;DHT22;10761;48.532;8.026;2023-09-30T11:54:52;31.30;56.20
21207;DHT22;10761;48.532;8.026;2023-09-30T11:57:17;31.50;25.20
21207;DHT22;10761;48.532;8.026;2023-09-30T11:59:47;31.30;1.00
21207;DHT22;10761;48.532;8.026;2023-09-30T12:02:14;31.30;1.00
21207;DHT22;10761;48.532;8.026;2023-09-30T12:04:43;31.60;1.00
21207;DHT22;10761;48.532;8.026;2023-09-30T12:07:09;31.40;1.00
21207;DHT22;10761;48.532;8.026;2023-09-30T12:09:35;31.40;1.00
21207;DHT22;10761;48.532;8.026;2023-09-30T12:12:03;32.50;1.00
21207;DHT22;10761;48.532;8.026;2023-09-30T12:14:28;32.80;1.00
21207;DHT22;10761;48.532;8.026;2023-09-30T12:16:57;33.20;1.00
21207;DHT22;10761;48.532;8.026;2023-09-30T12:19:23;33.10;1.00
21207;DHT22;10761;48.532;8.026;2023-09-30T12:21:50;32.90;1.00
21207;DHT22;10761;48.532;8.026;2023-09-30T12:24:16;32.90;1.00
21207;DHT22;10761;48.532;8.026;2023-09-30T12:26:44;32.70;1.00
21207;DHT22;10761;48.532;8.026;2023-09-30T12:29:23;32.10;1.00
21207;DHT22;10761;48.532;8.026;2023-09-30T12:31:50;31.60;1.00
21207;DHT22;10761;48.532;8.026;2023-09-30T12:34:16;31.10;1.00
21207;DHT22;10761;48.532;8.026;2023-09-30T12:36:43;30.20;1.00
21207;DHT22;10761;48.532;8.026;2023-09-30T12:39:09;29.50;1.00
21207;DHT22;10761;48.532;8.026;2023-09-30T12:41:39;29.00;1.00
21207;DHT22;10761;48.532;8.026;2023-09-30T12:44:06;29.60;1.00
21207;DHT22;10761;48.532;8.026;2023-09-30T12:46:32;30.40;1.00
21207;DHT22;10761;48.532;8.026;2023-09-30T12:49:01;30.60;1.00
21207;DHT22;10761;48.532;8.026;2023-09-30T12:51:27;31.00;1.00
21207;DHT22;10761;48.532;8.026;2023-09-30T12:53:52;31.60;1.00
21207;DHT22;10761;48.532;8.026;2023-09-30T12:56:18;31.30;1.00
21207;DHT22;10761;48.532;8.026;2023-09-30T12:58:44;31.20;1.00
21207;DHT22;10761;48.532;8.026;2023-09-30T13:01:10;30.50;1.00
21207;DHT22;10761;48.532;8.026;2023-09-30T13:03:35;30.00;1.00
21207;DHT22;10761;48.532;8.026;2023-09-30T13:06:01;29.10;1.00
21207;DHT22;10761;48.532;8.026;2023-09-30T13:08:27;29.30;1.00
21207;DHT22;10761;48.532;8.026;2023-09-30T13:11:02;29.40;1.00
21207;DHT22;10761;48.532;8.026;2023-09-30T13:13:32;29.50;1.00
21207;DHT22;10761;48.532;8.026;2023-09-30T13:16:02;29.70;1.00
21207;DHT22;10761;48.532;8.026;2023-09-30T13:18:31;30.40;1.00
21207;DHT22;10761;48.532;8.026;2023-09-30T13:20:56;30.80;1.00
21207;DHT22;10761;48.532;8.026;2023-09-30T13:23:22;30.80;1.00
21207;DHT22;10761;48.532;8.026;2023-09-30T13:25:48;31.40;1.00
21207;DHT22;10761;48.532;8.026;2023-09-30T13:28:13;31.50;1.00
21207;DHT22;10761;48.532;8.026;2023-09-30T13:30:39;31.50;1.00
21207;DHT22;10761;48.532;8.026;2023-09-30T13:33:05;31.10;1.00
21207;DHT22;10761;48.532;8.026;2023-09-30T13:35:30;30.80;1.00
21207;DHT22;10761;48.532;8.026;2023-09-30T13:37:57;30.60;1.00
21207;DHT22;10761;48.532;8.026;2023-09-30T13:40:22;30.00;1.00
21207;DHT22;10761;48.532;8.026;2023-09-30T13:42:48;30.20;1.00
21207;DHT22;10761;48.532;8.026;2023-09-30T13:45:14;31.50;1.00
21207;DHT22;10761;48.532;8.026;2023-09-30T13:47:42;32.80;1.00
21207;DHT22;10761;48.532;8.026;2023-09-30T13:50:08;33.50;1.00
21207;DHT22;10761;48.532;8.026;2023-09-30T13:52:34;34.10;1.00
21207;DHT22;10761;48.532;8.026;2023-09-30T13:55:00;34.40;1.00
21207;DHT22;10761;48.532;8.026;2023-09-30T13:57:26;34.50;1.00
21207;DHT22;10761;48.532;8.026;2023-09-30T13:59:51;34.70;1.00
21207;DHT22;10761;48.532;8.026;2023-09-30T14:02:17;35.00;1.00
21207;DHT22;10761;48.532;8.026;2023-09-30T14:04:43;34.60;1.00
21207;DHT22;10761;48.532;8.026;2023-09-30T14:07:09;34.20;1.00
21207;DHT22;10761;48.532;8.026;2023-09-30T14:09:35;34.20;1.00
21207;DHT22;10761;48.532;8.026;2023-09-30T14:12:01;34.10;1.00
21207;DHT22;10761;48.532;8.026;2023-09-30T14:14:26;34.10;1.00
21207;DHT22;10761;48.532;8.026;2023-09-30T14:16:52;34.20;1.00
21207;DHT22;10761;48.532;8.026;2023-09-30T14:19:17;34.10;1.00
21207;DHT22;10761;48.532;8.026;2023-09-30T14:21:43;34.30;1.00
21207;DHT22;10761;48.532;8.026;2023-09-30T14:24:09;33.80;1.00
21207;DHT22;10761;48.532;8.026;2023-09-30T14:26:35;34.00;1.00
21207;DHT22;10761;48.532;8.026;2023-09-30T14:29:01;34.00;1.00
21207;DHT22;10761;48.532;8.026;2023-09-30T14:31:27;34.20;1.00
21207;DHT22;10761;48.532;8.026;2023-09-30T14:33:52;34.10;1.00
21207;DHT22;10761;48.532;8.026;2023-09-30T14:36:18;34.00;1.00
21207;DHT22;10761;48.532;8.026;2023-09-30T14:38:47;34.50;1.00
21207;DHT22;10761;48.532;8.026;2023-09-30T14:41:14;34.40;1.00
21207;DHT22;10761;48.532;8.026;2023-09-30T14:43:40;34.60;1.00
21207;DHT22;10761;48.532;8.026;2023-09-30T14:46:06;34.60;1.00
21207;DHT22;10761;48.532;8.026;2023-09-30T14:48:33;34.50;1.00
21207;DHT22;10761;48.532;8.026;2023-09-30T14:50:59;34.40;1.00
21207;DHT22;10761;48.532;8.026;2023-09-30T14:53:25;34.20;1.00
21207;DHT22;10761;48.532;8.026;2023-09-30T14:55:51;34.00;1.00
21207;DHT22;10761;48.532;8.026;2023-09-30T14:58:16;33.50;1.00
21207;DHT22;10761;48.532;8.026;2023-09-30T15:00:42;33.60;1.00
21207;DHT22;10761;48.532;8.026;2023-09-30T15:03:08;33.40;1.00
21207;DHT22;10761;48.532;8.026;2023-09-30T15:05:34;33.70;1.00
21207;DHT22;10761;48.532;8.026;2023-09-30T15:08:00;33.80;1.00
21207;DHT22;10761;48.532;8.026;2023-09-30T15:10:27;33.50;1.00
21207;DHT22;10761;48.532;8.026;2023-09-30T15:12:54;33.70;1.00
21207;DHT22;10761;48.532;8.026;2023-09-30T15:15:19;33.70;1.00
21207;DHT22;10761;48.532;8.026;2023-09-30T15:17:45;33.30;1.00
21207;DHT22;10761;48.532;8.026;2023-09-30T15:20:11;33.50;1.00
21207;DHT22;10761;48.532;8.026;2023-09-30T15:22:37;33.30;1.00
21207;DHT22;10761;48.532;8.026;2023-09-30T15:25:03;32.90;1.00
21207;DHT22;10761;48.532;8.026;2023-09-30T15:27:30;33.30;1.00
21207;DHT22;10761;48.532;8.026;2023-09-30T15:29:58;33.20;1.00
21207;DHT22;10761;48.532;8.026;2023-09-30T15:32:24;33.10;1.00
21207;DHT22;10761;48.532;8.026;2023-09-30T15:34:49;32.50;1.00
21207;DHT22;10761;48.532;8.026;2023-09-30T15:37:15;32.30;1.00
21207;DHT22;10761;48.532;8.026;2023-09-30T15:39:42;31.90;1.00
21207;DHT22;10761;48.532;8.026;2023-09-30T15:42:09;31.90;1.00
21207;DHT22;10761;48.532;8.026;2023-09-30T15:44:37;31.60;1.00
21207;DHT22;10761;48.532;8.026;2023-09-30T15:47:05;31.00;1.00
21207;DHT22;10761;48.532;8.026;2023-09-30T15:49:31;30.80;1.00
21207;DHT22;10761;48.532;8.026;2023-09-30T15:51:56;30.50;1.00
21207;DHT22;10761;48.532;8.026;2023-09-30T15:54:22;30.00;1.00
21207;DHT22;10761;48.532;8.026;2023-09-30T15:56:47;29.90;1.00
21207;DHT22;10761;48.532;8.026;2023-09-30T15:59:13;30.20;1.00
21207;DHT22;10761;48.532;8.026;2023-09-30T16:01:39;30.50;1.00